Time;durP1;ratioP1;P1;durP2;ratioP2;P2;SDS_P1;SDS_P2;PMS_P1;PMS_P2;Temp;Humidity;BMP_temperature;BMP_pressure;BME280_temperature;BME280_humidity;BME280_pressure;Samples;Min_cycle;Max_cycle;Signal;HPM_P1;HPM_P2
2023/03/12 00:01:19;;;;;;;0.95;0.90;;;-3.60;99.90;;;;;;5030950;28;20435;-78
2023/03/12 00:03:48;;;;;;;0.60;0.40;;;-3.50;99.90;;;;;;5025008;28;20485;-78
2023/03/12 00:06:17;;;;;;;0.60;0.60;;;-3.50;99.90;;;;;;5014166;28;20772;-78
2023/03/12 00:08:44;;;;;;;0.43;0.43;;;-3.40;99.90;;;;;;5023885;28;20519;-78
2023/03/12 00:11:15;;;;;;;1.00;0.87;;;-3.40;1.00;;;;;;5031658;28;20465;-78
2023/03/12 00:13:51;;;;;;;0.30;0.20;;;-3.40;99.90;;;;;;5025608;28;21247;-77
2023/03/12 00:16:19;;;;;;;0.43;0.43;;;-3.60;92.80;;;;;;5031119;28;20438;-78
2023/03/12 00:18:50;;;;;;;0.68;0.68;;;-3.60;1.00;;;;;;5024907;28;20516;-78
2023/03/12 00:21:20;;;;;;;1.70;0.88;;;-3.80;1.00;;;;;;5027901;28;20422;-77
2023/03/12 00:23:47;;;;;;;0.60;0.60;;;-3.90;1.00;;;;;;5021212;28;20523;-78
2023/03/12 00:26:15;;;;;;;2.50;0.90;;;-4.00;1.00;;;;;;5020631;28;20446;-78
2023/03/12 00:28:46;;;;;;;1.23;0.73;;;-4.10;11.20;;;;;;5010156;28;20436;-78
2023/03/12 00:31:18;;;;;;;0.50;0.50;;;-4.10;1.00;;;;;;5026590;28;20426;-78
2023/03/12 00:33:48;;;;;;;0.60;0.52;;;-4.20;13.50;;;;;;5024464;28;20492;-78
2023/03/12 00:36:16;;;;;;;0.60;0.50;;;-4.20;99.90;;;;;;5024901;28;20471;-78
2023/03/12 00:38:43;;;;;;;1.80;0.90;;;-4.10;99.90;;;;;;5025029;28;20431;-78
2023/03/12 00:41:10;;;;;;;0.80;0.40;;;-4.00;1.00;;;;;;5019943;28;20448;-75
2023/03/12 00:43:37;;;;;;;0.43;0.43;;;-3.80;99.90;;;;;;5028966;28;20438;-76
2023/03/12 00:46:04;;;;;;;2.80;1.10;;;-3.70;99.90;;;;;;5030593;28;20492;-76
2023/03/12 00:48:30;;;;;;;0.50;0.50;;;-3.50;99.90;;;;;;5031057;28;20457;-76
2023/03/12 00:50:57;;;;;;;0.40;0.40;;;-3.40;99.90;;;;;;5021482;28;21187;-75
2023/03/12 00:53:24;;;;;;;0.70;0.55;;;-3.30;99.90;;;;;;5022626;28;20766;-75
2023/03/12 00:55:51;;;;;;;0.70;0.70;;;-3.20;99.90;;;;;;5021187;28;20436;-77
2023/03/12 00:58:17;;;;;;;0.80;0.60;;;-3.20;1.00;;;;;;5020723;28;21143;-75
2023/03/12 01:00:44;;;;;;;2.05;0.47;;;-3.10;1.00;;;;;;5021372;28;20521;-76
2023/03/12 01:03:11;;;;;;;0.65;0.65;;;-3.00;99.90;;;;;;5026527;28;20427;-75
2023/03/12 01:05:39;;;;;;;1.00;0.60;;;-3.00;99.90;;;;;;5028463;28;20810;-77
2023/03/12 01:08:09;;;;;;;0.80;0.80;;;-3.00;87.10;;;;;;5029750;28;20438;-77
2023/03/12 01:10:41;;;;;;;2.80;0.47;;;-3.00;1.00;;;;;;5029860;28;20430;-77
2023/03/12 01:13:08;;;;;;;1.17;1.17;;;-3.10;1.00;;;;;;5030542;28;20437;-77
2023/03/12 01:15:34;;;;;;;0.57;0.57;;;-3.10;1.00;;;;;;5029950;28;20783;-77
2023/03/12 01:18:01;;;;;;;1.30;0.80;;;-3.10;1.00;;;;;;5028890;28;20431;-78
2023/03/12 01:20:28;;;;;;;1.10;0.80;;;-3.10;99.90;;;;;;5020130;28;20431;-75
2023/03/12 01:22:55;;;;;;;0.60;0.60;;;-3.20;99.90;;;;;;5030753;28;20468;-75
2023/03/12 01:25:22;;;;;;;0.80;0.80;;;-3.20;99.90;;;;;;5023764;28;20511;-77
2023/03/12 01:27:48;;;;;;;0.70;0.60;;;-3.20;99.90;;;;;;5010940;28;20576;-75
2023/03/12 01:30:15;;;;;;;0.80;0.75;;;-3.30;99.90;;;;;;5026091;28;20423;-77
2023/03/12 01:32:42;;;;;;;1.50;0.50;;;-3.30;85.30;;;;;;5033789;28;20444;-75
2023/03/12 01:35:09;;;;;;;0.63;0.63;;;-3.30;99.90;;;;;;5033957;28;20430;-75
2023/03/12 01:37:36;;;;;;;1.73;0.77;;;-3.30;99.90;;;;;;5029291;28;20831;-75
2023/03/12 01:40:03;;;;;;;0.80;0.80;;;-3.20;99.90;;;;;;5027019;28;20509;-76
2023/03/12 01:42:30;;;;;;;0.77;0.77;;;-3.20;99.90;;;;;;5027918;28;20483;-75
2023/03/12 01:45:02;;;;;;;0.30;0.30;;;-3.10;99.90;;;;;;5033459;28;20514;-76
2023/03/12 01:47:32;;;;;;;0.40;0.40;;;-3.10;99.90;;;;;;5025989;28;20441;-76
2023/03/12 01:50:03;;;;;;;0.63;0.63;;;-3.00;99.90;;;;;;5032352;28;20442;-76
2023/03/12 01:52:35;;;;;;;0.50;0.50;;;-3.00;99.90;;;;;;5033979;28;20431;-75
2023/03/12 01:55:06;;;;;;;0.50;0.50;;;-3.00;99.90;;;;;;5031186;28;20439;-75
2023/03/12 01:57:45;;;;;;;1.50;1.13;;;-3.00;97.90;;;;;;5033360;28;20442;-75
2023/03/12 02:00:15;;;;;;;0.70;0.70;;;-2.90;90.20;;;;;;5033641;28;20430;-75
2023/03/12 02:02:43;;;;;;;0.90;0.90;;;-2.90;99.30;;;;;;5032829;28;20467;-75
2023/03/12 02:05:20;;;;;;;1.50;0.67;;;-2.80;98.10;;;;;;5029373;28;20421;-75
2023/03/12 02:07:46;;;;;;;0.50;0.50;;;-2.70;71.20;;;;;;5026436;28;20530;-75
2023/03/12 02:10:14;;;;;;;1.05;1.05;;;-2.70;12.50;;;;;;5029460;28;20974;-75
2023/03/12 02:12:41;;;;;;;1.20;0.95;;;-2.60;1.00;;;;;;5026474;28;20470;-75
2023/03/12 02:15:09;;;;;;;1.00;0.80;;;-2.60;1.00;;;;;;5033402;28;20431;-75
2023/03/12 02:17:38;;;;;;;0.70;0.60;;;-2.60;1.00;;;;;;5033346;28;20426;-75
2023/03/12 02:20:19;;;;;;;1.85;0.52;;;-2.60;1.00;;;;;;5033063;28;20852;-75
2023/03/12 02:22:54;;;;;;;1.97;0.93;;;-2.60;99.90;;;;;;5033286;28;20451;-75
2023/03/12 02:25:34;;;;;;;1.58;0.88;;;-2.60;99.90;;;;;;5033053;28;20461;-75
2023/03/12 02:28:03;;;;;;;1.55;0.93;;;-2.60;99.90;;;;;;5031763;28;20515;-75
2023/03/12 02:30:31;;;;;;;1.90;1.02;;;-2.60;99.90;;;;;;5017911;28;20458;-75
2023/03/12 02:33:01;;;;;;;0.60;0.60;;;-2.60;94.40;;;;;;5031688;28;20926;-75
2023/03/12 02:35:27;;;;;;;0.80;0.80;;;-2.60;33.60;;;;;;5012809;28;20902;-75
2023/03/12 02:37:55;;;;;;;1.00;0.65;;;-2.60;9.20;;;;;;5016776;28;20914;-75
2023/03/12 02:40:44;;;;;;;0.50;0.50;;;-2.60;1.00;;;;;;5032850;28;20518;-75
2023/03/12 02:43:11;;;;;;;0.98;0.98;;;-2.60;1.00;;;;;;5012407;28;20432;-76
2023/03/12 02:45:38;;;;;;;0.82;0.60;;;-2.60;1.00;;;;;;5024981;28;20907;-76
2023/03/12 02:48:08;;;;;;;1.05;1.05;;;-2.60;1.00;;;;;;5013028;28;20486;-75
2023/03/12 02:50:37;;;;;;;1.60;0.80;;;-2.60;1.00;;;;;;5030136;28;20435;-75
2023/03/12 02:53:04;;;;;;;1.05;1.05;;;-2.50;1.00;;;;;;5026385;28;21501;-75
2023/03/12 02:55:31;;;;;;;1.80;1.70;;;-2.40;1.00;;;;;;5027796;28;20601;-75
2023/03/12 02:57:57;;;;;;;1.10;1.10;;;-2.40;1.00;;;;;;5015502;28;20486;-75
2023/03/12 03:00:24;;;;;;;0.43;0.43;;;-2.30;1.00;;;;;;5027989;28;20510;-75
2023/03/12 03:02:51;;;;;;;1.25;0.73;;;-2.30;1.00;;;;;;5026282;28;20443;-75
2023/03/12 03:05:21;;;;;;;5.95;1.25;;;-2.20;99.90;;;;;;5013051;28;20440;-75
2023/03/12 03:07:47;;;;;;;1.10;0.85;;;-2.10;99.90;;;;;;5021067;28;20469;-75
2023/03/12 03:10:16;;;;;;;0.68;0.55;;;-2.10;99.90;;;;;;5018523;28;20439;-75
2023/03/12 03:12:47;;;;;;;1.15;1.15;;;-2.10;99.90;;;;;;5030228;28;20438;-75
2023/03/12 03:15:17;;;;;;;0.57;0.57;;;-2.20;92.40;;;;;;5013866;28;20571;-77
2023/03/12 03:17:44;;;;;;;1.40;0.73;;;-2.30;18.80;;;;;;5027093;28;20438;-75
2023/03/12 03:20:11;;;;;;;0.88;0.85;;;-2.30;1.00;;;;;;5031389;28;20446;-75
2023/03/12 03:22:38;;;;;;;0.77;0.77;;;-2.40;1.00;;;;;;5028825;28;21168;-75
2023/03/12 03:25:07;;;;;;;0.60;0.60;;;-2.40;1.00;;;;;;5024503;28;20515;-75
2023/03/12 03:27:34;;;;;;;0.50;0.50;;;-2.40;1.00;;;;;;5017505;28;20440;-75
2023/03/12 03:30:07;;;;;;;0.50;0.50;;;-2.40;1.00;;;;;;5028929;28;20489;-75
2023/03/12 03:32:34;;;;;;;0.35;0.35;;;-2.30;41.20;;;;;;5022619;28;20446;-74
2023/03/12 03:35:01;;;;;;;1.50;0.82;;;-2.20;55.40;;;;;;5027502;28;20498;-74
2023/03/12 03:37:27;;;;;;;1.35;0.77;;;-2.20;51.90;;;;;;5022784;28;20814;-74
2023/03/12 03:39:54;;;;;;;0.90;0.90;;;-2.10;53.10;;;;;;5028251;28;20951;-75
2023/03/12 03:42:23;;;;;;;1.50;1.02;;;-2.10;35.00;;;;;;5029627;28;20838;-74
2023/03/12 03:44:50;;;;;;;1.48;0.82;;;-2.10;1.00;;;;;;5024397;28;20429;-74
2023/03/12 03:47:17;;;;;;;2.90;0.80;;;-2.00;1.00;;;;;;5029138;28;20946;-74
2023/03/12 03:49:44;;;;;;;0.47;0.47;;;-2.00;1.00;;;;;;5033910;28;20441;-74
2023/03/12 03:52:10;;;;;;;1.63;1.10;;;-2.10;1.00;;;;;;5026712;28;20438;-74
2023/03/12 03:54:37;;;;;;;0.70;0.60;;;-2.10;1.00;;;;;;5027137;28;20510;-74
2023/03/12 03:57:04;;;;;;;1.63;1.05;;;-2.10;1.00;;;;;;5036501;28;20429;-74
2023/03/12 03:59:30;;;;;;;0.90;0.65;;;-2.10;1.00;;;;;;5020866;28;20438;-74
2023/03/12 04:01:57;;;;;;;0.95;0.95;;;-2.20;1.00;;;;;;5028521;28;20423;-74
2023/03/12 04:04:26;;;;;;;0.70;0.63;;;-2.20;1.00;;;;;;5022509;28;20812;-74
2023/03/12 04:06:54;;;;;;;0.80;0.63;;;-2.20;1.00;;;;;;5029568;28;20439;-74
2023/03/12 04:09:20;;;;;;;0.47;0.47;;;-2.20;1.00;;;;;;5026259;28;20431;-74
2023/03/12 04:11:47;;;;;;;0.40;0.40;;;-2.10;1.00;;;;;;5027784;28;20435;-74
2023/03/12 04:14:14;;;;;;;0.40;0.40;;;-2.00;1.00;;;;;;5025218;28;20435;-74
2023/03/12 04:16:41;;;;;;;1.02;0.90;;;-2.00;1.00;;;;;;5026090;28;20431;-74
2023/03/12 04:19:08;;;;;;;1.10;1.10;;;-1.90;1.00;;;;;;5028037;28;20434;-74
2023/03/12 04:21:34;;;;;;;1.10;0.73;;;-1.90;1.00;;;;;;5025654;28;20434;-74
2023/03/12 04:24:01;;;;;;;0.75;0.75;;;-1.90;1.00;;;;;;5028801;28;20963;-74
2023/03/12 04:26:28;;;;;;;0.80;0.80;;;-1.90;1.00;;;;;;5026773;28;20431;-74
2023/03/12 04:28:54;;;;;;;0.77;0.77;;;-1.90;1.00;;;;;;5027948;28;20445;-74
2023/03/12 04:31:21;;;;;;;0.65;0.65;;;-1.90;1.00;;;;;;5028076;28;20549;-74
2023/03/12 04:33:48;;;;;;;0.77;0.68;;;-1.90;99.90;;;;;;5029645;28;20441;-74
2023/03/12 04:36:15;;;;;;;6.75;0.82;;;-1.90;99.90;;;;;;5023555;28;20439;-74
2023/03/12 04:38:41;;;;;;;0.80;0.80;;;-1.90;99.90;;;;;;5021050;28;20436;-74
2023/03/12 04:41:11;;;;;;;0.55;0.55;;;-1.90;99.90;;;;;;5026156;28;20539;-74
2023/03/12 04:43:38;;;;;;;0.60;0.60;;;-1.90;99.90;;;;;;5025488;28;20456;-74
2023/03/12 04:46:06;;;;;;;0.55;0.52;;;-1.90;99.90;;;;;;5026191;28;20442;-75
2023/03/12 04:48:34;;;;;;;0.57;0.57;;;-1.80;99.90;;;;;;5020988;28;20807;-74
2023/03/12 04:51:02;;;;;;;0.55;0.55;;;-1.70;99.90;;;;;;5019393;28;20442;-75
2023/03/12 04:53:29;;;;;;;0.63;0.63;;;-1.60;99.90;;;;;;5026899;28;20423;-75
2023/03/12 04:55:56;;;;;;;0.55;0.55;;;-1.50;99.90;;;;;;5027463;28;20422;-74
2023/03/12 04:58:23;;;;;;;0.45;0.45;;;-1.50;99.90;;;;;;5028746;28;20435;-75
2023/03/12 05:00:50;;;;;;;1.40;0.70;;;-1.50;99.90;;;;;;5024573;28;20795;-75
2023/03/12 05:03:17;;;;;;;0.80;0.80;;;-1.50;99.90;;;;;;5010226;28;20517;-75
2023/03/12 05:05:44;;;;;;;0.50;0.50;;;-1.40;99.90;;;;;;5023558;28;21159;-75
2023/03/12 05:08:10;;;;;;;0.68;0.63;;;-1.40;99.90;;;;;;5029213;28;20461;-74
2023/03/12 05:10:37;;;;;;;0.85;0.85;;;-1.40;99.90;;;;;;5030800;28;20442;-75
2023/03/12 05:13:19;;;;;;;0.45;0.45;;;-1.30;99.90;;;;;;5029737;28;20438;-74
2023/03/12 05:15:49;;;;;;;3.72;0.93;;;-1.30;99.90;;;;;;5022211;28;20439;-75
2023/03/12 05:18:19;;;;;;;4.80;1.13;;;-1.30;99.90;;;;;;5024519;28;20506;-74
2023/03/12 05:21:19;;;;;;;1.90;1.20;;;-1.30;99.90;;;;;;5023580;28;20500;-75
2023/03/12 05:23:47;;;;;;;0.60;0.60;;;-1.30;99.90;;;;;;5027683;28;20447;-75
2023/03/12 05:26:22;;;;;;;0.82;0.82;;;-1.30;99.90;;;;;;5030375;28;20435;-75
2023/03/12 05:28:49;;;;;;;0.63;0.63;;;-1.20;99.90;;;;;;5033509;28;20429;-75
2023/03/12 05:31:20;;;;;;;0.77;0.77;;;-1.20;96.80;;;;;;5031099;28;20454;-75
2023/03/12 05:33:47;;;;;;;1.20;0.70;;;-1.20;88.10;;;;;;5027694;28;20441;-75
2023/03/12 05:36:19;;;;;;;0.80;0.70;;;-1.20;76.70;;;;;;5027309;28;20541;-75
2023/03/12 05:38:45;;;;;;;0.60;0.60;;;-1.20;51.10;;;;;;5040764;28;20430;-75
2023/03/12 05:41:19;;;;;;;1.00;1.00;;;-1.20;33.10;;;;;;5030181;28;21002;-75
2023/03/12 05:43:49;;;;;;;0.60;0.60;;;-1.20;23.80;;;;;;5028140;28;20427;-75
2023/03/12 05:46:16;;;;;;;0.88;0.88;;;-1.20;7.40;;;;;;5031061;28;20516;-75
2023/03/12 05:48:43;;;;;;;0.20;0.20;;;-1.30;1.60;;;;;;5031115;28;20434;-75
2023/03/12 05:51:10;;;;;;;0.68;0.68;;;-1.20;1.00;;;;;;5030900;28;20533;-75
2023/03/12 05:53:39;;;;;;;0.70;0.70;;;-1.20;1.00;;;;;;5012906;28;20801;-74
2023/03/12 05:56:09;;;;;;;0.73;0.73;;;-1.20;1.00;;;;;;5033327;28;20534;-75
2023/03/12 05:58:36;;;;;;;0.80;0.80;;;-1.20;1.00;;;;;;5038045;28;20431;-75
2023/03/12 06:01:14;;;;;;;0.60;0.60;;;-1.20;1.00;;;;;;5025180;28;20521;-75
2023/03/12 06:03:41;;;;;;;0.60;0.40;;;-1.20;1.00;;;;;;5025706;28;20974;-75
2023/03/12 06:06:09;;;;;;;0.40;0.40;;;-1.20;1.00;;;;;;5040223;28;20516;-75
2023/03/12 06:08:37;;;;;;;0.65;0.65;;;-1.20;1.00;;;;;;5053391;28;20524;-75
2023/03/12 06:11:06;;;;;;;0.73;0.70;;;-1.10;5.40;;;;;;5053530;28;20435;-75
2023/03/12 06:13:33;;;;;;;0.60;0.60;;;-1.10;7.90;;;;;;5035333;28;20905;-75
2023/03/12 06:16:17;;;;;;;0.43;0.43;;;-1.00;7.80;;;;;;5032528;28;20430;-75
2023/03/12 06:18:45;;;;;;;1.00;0.53;;;-0.90;11.60;;;;;;5030998;28;20473;-75
2023/03/12 06:21:18;;;;;;;0.90;0.90;;;-0.90;11.10;;;;;;5033090;28;20437;-75
2023/03/12 06:23:45;;;;;;;1.00;0.80;;;-0.80;3.90;;;;;;5033441;28;20445;-75
2023/03/12 06:26:14;;;;;;;0.40;0.40;;;-0.70;1.00;;;;;;5048550;28;20485;-75
2023/03/12 06:28:41;;;;;;;1.05;1.05;;;-0.60;1.00;;;;;;5024335;28;20432;-75
2023/03/12 06:31:09;;;;;;;0.77;0.77;;;-0.50;1.00;;;;;;5013531;28;20444;-75
2023/03/12 06:33:35;;;;;;;1.00;0.70;;;-0.40;1.00;;;;;;5013475;28;20437;-75
2023/03/12 06:36:04;;;;;;;0.38;0.38;;;-0.40;1.00;;;;;;5013125;28;20512;-75
2023/03/12 06:38:32;;;;;;;1.23;0.57;;;-0.30;1.00;;;;;;5023173;28;20431;-75
2023/03/12 06:41:09;;;;;;;0.70;0.70;;;-0.30;1.00;;;;;;5033197;28;20432;-75
2023/03/12 06:43:37;;;;;;;1.05;1.05;;;-0.20;1.00;;;;;;5026499;28;20443;-75
2023/03/12 06:46:06;;;;;;;0.52;0.52;;;-0.20;1.00;;;;;;5013288;28;20432;-75
2023/03/12 06:48:52;;;;;;;1.05;1.05;;;-0.20;1.00;;;;;;5013422;28;20437;-75
2023/03/12 06:51:19;;;;;;;0.57;0.57;;;-0.10;1.00;;;;;;5012749;28;20481;-72
2023/03/12 06:53:46;;;;;;;0.90;0.70;;;-0.10;1.00;;;;;;5011352;28;20472;-72
2023/03/12 06:56:16;;;;;;;2.63;1.70;;;0.00;1.00;;;;;;5011667;28;20436;-73
2023/03/12 06:58:42;;;;;;;1.55;1.15;;;0.00;1.00;;;;;;5011841;28;20433;-72
2023/03/12 07:01:09;;;;;;;1.80;1.50;;;0.10;1.00;;;;;;5023545;28;20434;-73
2023/03/12 07:03:39;;;;;;;0.40;0.40;;;0.10;1.00;;;;;;5031904;28;20434;-73
2023/03/12 07:06:15;;;;;;;0.70;0.70;;;0.20;1.00;;;;;;5029718;28;20462;-72
2023/03/12 07:08:45;;;;;;;1.10;0.70;;;0.30;1.00;;;;;;5031627;28;20434;-72
2023/03/12 07:11:12;;;;;;;0.65;0.65;;;0.40;1.00;;;;;;5031688;28;20438;-74
2023/03/12 07:13:40;;;;;;;0.68;0.68;;;0.30;1.00;;;;;;5031010;28;20438;-74
2023/03/12 07:16:10;;;;;;;0.63;0.60;;;0.20;1.00;;;;;;5029082;28;20497;-73
2023/03/12 07:18:36;;;;;;;2.90;1.02;;;0.20;1.00;;;;;;5030795;28;20486;-73
2023/03/12 07:21:06;;;;;;;0.70;0.70;;;0.20;1.00;;;;;;5031144;28;20453;-74
2023/03/12 07:23:33;;;;;;;4.30;0.73;;;0.20;1.00;;;;;;5031259;28;20427;-72
2023/03/12 07:26:04;;;;;;;0.63;0.63;;;0.10;1.00;;;;;;5030414;28;20427;-72
2023/03/12 07:28:31;;;;;;;2.60;0.80;;;0.10;1.00;;;;;;5030804;28;20523;-73
2023/03/12 07:31:03;;;;;;;0.80;0.80;;;0.00;15.40;;;;;;5030954;28;20435;-72
2023/03/12 07:33:30;;;;;;;0.68;0.68;;;0.00;77.70;;;;;;5029622;28;20431;-72
2023/03/12 07:35:57;;;;;;;0.80;0.80;;;0.10;99.90;;;;;;5030456;28;20437;-72
2023/03/12 07:38:24;;;;;;;0.68;0.68;;;0.10;99.90;;;;;;5028999;28;20522;-72
2023/03/12 07:40:55;;;;;;;0.52;0.52;;;0.20;99.90;;;;;;5030109;28;20489;-72
2023/03/12 07:43:26;;;;;;;0.57;0.57;;;0.30;99.90;;;;;;5030245;28;20913;-72
2023/03/12 07:45:54;;;;;;;1.00;0.90;;;0.40;99.90;;;;;;5029632;28;20445;-71
2023/03/12 07:48:21;;;;;;;0.50;0.50;;;0.40;99.90;;;;;;5028851;28;20458;-71
2023/03/12 07:50:50;;;;;;;0.63;0.55;;;0.50;99.90;;;;;;5030280;28;20434;-72
2023/03/12 07:53:17;;;;;;;0.90;0.90;;;0.40;99.90;;;;;;5030408;28;20438;-72
2023/03/12 07:55:45;;;;;;;0.65;0.65;;;0.50;99.90;;;;;;5027676;28;20455;-72
2023/03/12 07:58:14;;;;;;;1.30;0.80;;;0.50;99.90;;;;;;5030178;28;20431;-72
2023/03/12 08:00:46;;;;;;;2.17;0.97;;;0.40;99.90;;;;;;5028398;28;20489;-72
2023/03/12 08:03:13;;;;;;;1.10;0.80;;;0.40;99.90;;;;;;5029480;28;20427;-72
2023/03/12 08:05:40;;;;;;;1.23;1.13;;;0.30;99.90;;;;;;5029000;28;20466;-71
2023/03/12 08:08:09;;;;;;;2.00;1.25;;;0.30;99.90;;;;;;5027873;28;20457;-73
2023/03/12 08:10:36;;;;;;;1.27;1.08;;;0.30;99.90;;;;;;5029696;28;20533;-72
2023/03/12 08:13:03;;;;;;;1.35;1.10;;;0.30;99.90;;;;;;5029971;28;20438;-73
2023/03/12 08:15:30;;;;;;;2.55;0.43;;;0.20;99.90;;;;;;5029572;28;21155;-72
2023/03/12 08:17:56;;;;;;;0.40;0.40;;;0.10;99.90;;;;;;5029647;28;20458;-72
2023/03/12 08:20:23;;;;;;;0.50;0.50;;;0.00;99.90;;;;;;5027951;28;20506;-73
2023/03/12 08:22:50;;;;;;;0.65;0.65;;;-0.10;99.90;;;;;;5029763;28;20492;-72
2023/03/12 08:25:19;;;;;;;0.73;0.73;;;-0.10;1.00;;;;;;5029376;28;20509;-72
2023/03/12 08:27:46;;;;;;;1.38;0.98;;;-0.10;1.00;;;;;;5028644;28;20514;-72
2023/03/12 08:30:13;;;;;;;1.10;1.10;;;0.00;1.00;;;;;;5029961;28;20426;-74
2023/03/12 08:32:40;;;;;;;1.00;0.70;;;0.10;94.10;;;;;;5030017;28;21080;-72
2023/03/12 08:35:10;;;;;;;0.50;0.50;;;0.10;99.90;;;;;;5028183;28;20920;-72
2023/03/12 08:37:36;;;;;;;0.77;0.77;;;0.10;99.90;;;;;;5027119;28;20437;-73
2023/03/12 08:40:11;;;;;;;5.57;1.52;;;0.20;1.00;;;;;;5029037;28;20457;-72
2023/03/12 08:42:40;;;;;;;0.98;0.98;;;0.30;1.00;;;;;;5028074;28;20434;-72
2023/03/12 08:45:11;;;;;;;1.02;1.02;;;0.40;1.00;;;;;;5029124;28;20893;-72
2023/03/12 08:47:40;;;;;;;1.77;1.17;;;0.40;1.00;;;;;;5027170;28;20523;-73
2023/03/12 08:50:12;;;;;;;1.53;1.00;;;0.40;1.00;;;;;;5029484;28;20477;-73
2023/03/12 08:52:38;;;;;;;1.05;1.05;;;0.40;1.00;;;;;;5029341;28;20890;-72
2023/03/12 08:55:06;;;;;;;0.73;0.73;;;0.50;99.90;;;;;;5027374;28;20470;-73
2023/03/12 08:57:33;;;;;;;1.42;1.33;;;0.70;1.00;;;;;;5029223;28;20439;-73
2023/03/12 09:00:00;;;;;;;1.15;1.10;;;0.90;99.90;;;;;;5029578;28;20440;-72
2023/03/12 09:02:29;;;;;;;3.90;0.88;;;0.90;1.00;;;;;;5027566;28;20444;-73
2023/03/12 09:04:56;;;;;;;3.33;0.82;;;1.10;99.90;;;;;;5028569;28;20433;-72
2023/03/12 09:07:23;;;;;;;1.20;1.15;;;1.10;99.90;;;;;;5029290;28;20434;-72
2023/03/12 09:09:49;;;;;;;4.13;1.60;;;1.10;64.30;;;;;;5026422;28;20548;-72
2023/03/12 09:12:22;;;;;;;2.70;1.40;;;1.10;1.60;;;;;;5029139;28;20431;-73
2023/03/12 09:14:50;;;;;;;0.80;0.80;;;1.20;90.40;;;;;;5026734;28;20427;-73
2023/03/12 09:17:32;;;;;;;2.40;2.20;;;1.20;1.00;;;;;;5028856;28;20510;-73
2023/03/12 09:19:59;;;;;;;1.48;1.30;;;1.20;1.00;;;;;;5027576;28;20426;-73
2023/03/12 09:22:29;;;;;;;3.03;1.75;;;1.20;1.00;;;;;;5028953;28;20488;-73
2023/03/12 09:24:55;;;;;;;1.30;1.30;;;1.20;1.00;;;;;;5028116;28;20493;-73
2023/03/12 09:27:24;;;;;;;2.33;1.33;;;1.30;99.90;;;;;;5028438;28;20427;-73
2023/03/12 09:29:53;;;;;;;2.30;1.40;;;1.30;99.90;;;;;;5028852;28;20430;-73
2023/03/12 09:32:26;;;;;;;1.75;1.65;;;1.50;99.90;;;;;;5029358;28;20496;-73
2023/03/12 09:34:53;;;;;;;1.50;1.38;;;1.60;1.00;;;;;;5026726;28;20430;-73
2023/03/12 09:37:20;;;;;;;1.90;1.65;;;1.80;8.80;;;;;;5029169;28;20433;-74
2023/03/12 09:39:50;;;;;;;6.00;1.67;;;2.10;1.00;;;;;;5028983;28;20489;-73
2023/03/12 09:42:32;;;;;;;2.50;1.80;;;2.20;99.90;;;;;;5028760;28;21130;-73
2023/03/12 09:45:03;;;;;;;4.90;2.38;;;2.00;1.00;;;;;;5028749;28;20431;-73
2023/03/12 09:47:34;;;;;;;1.30;1.30;;;2.10;1.00;;;;;;5029114;28;20435;-74
2023/03/12 09:50:09;;;;;;;1.67;1.42;;;2.40;99.90;;;;;;5029028;28;20514;-73
2023/03/12 09:52:44;;;;;;;0.93;0.93;;;2.60;1.00;;;;;;5027548;28;20431;-74
2023/03/12 09:55:15;;;;;;;2.97;1.23;;;2.60;99.90;;;;;;5032389;28;20786;-74
2023/03/12 09:57:43;;;;;;;1.07;1.07;;;2.50;99.90;;;;;;5031476;28;20427;-74
2023/03/12 10:00:14;;;;;;;1.65;1.30;;;2.60;99.90;;;;;;5016683;28;21125;-74
2023/03/12 10:03:32;;;;;;;1.75;1.45;;;2.70;99.90;;;;;;5031336;28;20484;-74
2023/03/12 10:06:15;;;;;;;3.03;1.00;;;2.70;99.90;;;;;;5028831;28;20481;-74
2023/03/12 10:09:15;;;;;;;1.40;1.20;;;3.20;99.90;;;;;;5027674;28;20953;-74
2023/03/12 10:12:04;;;;;;;0.88;0.88;;;3.50;99.90;;;;;;5029325;28;20439;-74
2023/03/12 10:14:44;;;;;;;1.13;1.02;;;3.70;1.00;;;;;;5027157;28;20433;-74
2023/03/12 10:17:43;;;;;;;0.98;0.98;;;3.60;99.90;;;;;;5029110;28;20427;-74
2023/03/12 10:20:28;;;;;;;3.00;2.00;;;3.60;99.90;;;;;;5027397;28;20431;-76
2023/03/12 10:23:29;;;;;;;1.40;1.40;;;3.70;99.90;;;;;;5009519;28;20436;-75
2023/03/12 10:26:10;;;;;;;1.25;1.20;;;3.60;99.90;;;;;;5028958;28;20561;-74
2023/03/12 10:28:43;;;;;;;2.55;1.10;;;3.40;99.90;;;;;;5027213;28;20431;-74
2023/03/12 10:31:19;;;;;;;1.48;1.40;;;3.50;99.90;;;;;;5029270;28;20427;-75
2023/03/12 10:33:54;;;;;;;1.77;1.65;;;3.60;99.90;;;;;;5028366;28;20946;-75
2023/03/12 10:36:33;;;;;;;1.40;1.30;;;3.50;99.90;;;;;;5029866;28;20427;-75
2023/03/12 10:39:05;;;;;;;2.00;1.45;;;3.60;99.90;;;;;;5029729;28;20519;-75
2023/03/12 10:41:32;;;;;;;1.25;1.15;;;3.40;99.90;;;;;;5029396;28;20439;-75
2023/03/12 10:44:06;;;;;;;2.37;1.80;;;3.30;99.90;;;;;;5028632;28;20479;-75
2023/03/12 10:47:13;;;;;;;1.27;1.17;;;3.20;99.90;;;;;;5031634;28;20521;-74
2023/03/12 10:49:40;;;;;;;2.05;1.83;;;3.20;99.90;;;;;;5031471;28;20936;-75
2023/03/12 10:52:16;;;;;;;1.15;1.15;;;3.30;99.90;;;;;;5031848;28;20456;-75
2023/03/12 10:54:45;;;;;;;3.10;1.52;;;3.40;99.90;;;;;;5031294;28;20431;-75
2023/03/12 10:57:14;;;;;;;3.47;1.67;;;3.60;99.90;;;;;;5031409;28;20434;-75
2023/03/12 10:59:44;;;;;;;1.60;1.50;;;3.80;99.90;;;;;;5016719;28;20491;-75
2023/03/12 11:02:33;;;;;;;1.45;1.25;;;4.00;99.90;;;;;;5031238;28;20449;-75
2023/03/12 11:05:02;;;;;;;1.53;1.53;;;3.90;99.90;;;;;;5030318;28;20545;-75
2023/03/12 11:07:35;;;;;;;2.50;1.37;;;4.00;99.90;;;;;;5031254;28;21121;-75
2023/03/12 11:10:22;;;;;;;1.33;1.33;;;4.00;99.90;;;;;;5031160;28;20446;-75
2023/03/12 11:12:51;;;;;;;2.13;2.00;;;3.90;99.90;;;;;;5029768;28;20525;-75
2023/03/12 11:15:35;;;;;;;2.80;2.20;;;4.00;99.90;;;;;;5029548;28;20467;-75
2023/03/12 11:18:28;;;;;;;2.40;1.80;;;4.10;99.90;;;;;;5029108;28;20431;-75
2023/03/12 11:21:09;;;;;;;2.60;1.75;;;4.00;99.90;;;;;;5030821;28;20510;-75
2023/03/12 11:23:42;;;;;;;2.28;2.08;;;4.00;99.90;;;;;;5031246;28;20437;-75
2023/03/12 11:26:18;;;;;;;1.90;1.55;;;3.80;99.90;;;;;;5031217;28;20431;-75
2023/03/12 11:29:17;;;;;;;1.05;1.00;;;3.90;1.00;;;;;;5028428;28;20829;-75
2023/03/12 11:31:53;;;;;;;2.60;1.83;;;4.00;1.00;;;;;;5028740;28;20438;-75
2023/03/12 11:34:25;;;;;;;1.58;1.48;;;4.30;1.00;;;;;;5010835;28;20437;-76
2023/03/12 11:37:04;;;;;;;2.25;2.08;;;4.90;1.00;;;;;;5010919;28;20432;-76
2023/03/12 11:39:51;;;;;;;1.90;1.50;;;5.10;1.00;;;;;;5010830;28;20444;-76
2023/03/12 11:42:38;;;;;;;2.65;2.45;;;5.60;99.90;;;;;;5011242;28;20429;-76
2023/03/12 11:45:13;;;;;;;2.20;1.90;;;6.10;99.90;;;;;;5009563;28;20471;-76
2023/03/12 11:48:26;;;;;;;2.58;1.88;;;6.20;99.90;;;;;;5011091;28;20768;-76
2023/03/12 11:51:26;;;;;;;1.90;1.80;;;6.10;99.90;;;;;;5011029;28;20433;-76
2023/03/12 11:54:04;;;;;;;2.38;1.67;;;5.90;97.10;;;;;;5010969;28;20439;-77
2023/03/12 11:56:51;;;;;;;2.45;2.28;;;6.10;94.50;;;;;;5010288;28;20433;-76
2023/03/12 11:59:40;;;;;;;1.60;1.50;;;5.90;92.00;;;;;;5010246;28;20520;-77
2023/03/12 12:02:25;;;;;;;1.97;1.87;;;5.80;87.70;;;;;;5010914;28;20441;-77
2023/03/12 12:05:20;;;;;;;2.20;2.08;;;5.80;95.70;;;;;;5015150;28;20431;-77
2023/03/12 12:07:54;;;;;;;3.42;2.47;;;6.20;99.90;;;;;;5035897;28;20556;-77
2023/03/12 12:10:31;;;;;;;1.85;1.75;;;6.80;99.90;;;;;;5032041;28;20449;-76
2023/03/12 12:13:11;;;;;;;3.37;3.03;;;7.60;99.90;;;;;;5030510;28;20514;-77
2023/03/12 12:16:00;;;;;;;1.55;1.45;;;8.40;2.80;;;;;;5029500;28;20439;-77
2023/03/12 12:18:46;;;;;;;1.85;1.75;;;9.20;1.00;;;;;;5030562;28;20902;-76
2023/03/12 12:21:34;;;;;;;2.70;1.97;;;9.70;1.00;;;;;;5028629;28;20434;-76
2023/03/12 12:24:27;;;;;;;2.17;1.70;;;10.70;1.00;;;;;;5030044;28;20446;-76
2023/03/12 12:27:16;;;;;;;2.67;1.83;;;11.70;1.00;;;;;;5030824;28;20464;-75
2023/03/12 12:29:47;;;;;;;1.65;1.55;;;11.50;1.00;;;;;;5030981;28;20442;-75
2023/03/12 12:32:38;;;;;;;1.55;1.45;;;11.50;1.00;;;;;;5031063;28;20441;-75
2023/03/12 12:35:25;;;;;;;2.03;1.85;;;11.40;1.00;;;;;;5030199;28;20435;-75
2023/03/12 12:38:30;;;;;;;1.65;1.42;;;11.00;99.90;;;;;;5029567;28;21098;-76
2023/03/12 12:41:13;;;;;;;1.70;1.63;;;11.00;99.90;;;;;;5031365;28;20728;-75
2023/03/12 12:43:49;;;;;;;1.42;1.42;;;11.00;99.90;;;;;;5028995;28;20439;-75
2023/03/12 12:46:19;;;;;;;2.30;1.60;;;10.60;99.90;;;;;;5030702;28;20522;-76
2023/03/12 12:48:52;;;;;;;1.70;1.60;;;10.50;99.90;;;;;;5030914;28;20509;-75
2023/03/12 12:51:25;;;;;;;1.67;1.58;;;10.30;99.90;;;;;;5030749;28;20426;-75
2023/03/12 12:53:59;;;;;;;2.38;1.55;;;10.00;99.90;;;;;;5029180;28;20427;-75
2023/03/12 12:56:32;;;;;;;1.75;1.50;;;9.80;99.90;;;;;;5030701;28;20509;-75
2023/03/12 12:59:23;;;;;;;1.70;1.60;;;9.70;99.90;;;;;;5029515;28;20445;-75
2023/03/12 13:01:53;;;;;;;2.30;1.92;;;9.70;99.90;;;;;;5029556;28;20435;-75
2023/03/12 13:04:24;;;;;;;3.77;1.97;;;9.90;99.90;;;;;;5030551;28;20434;-75
2023/03/12 13:07:22;;;;;;;1.65;1.55;;;9.90;99.90;;;;;;5013222;28;20494;-75
2023/03/12 13:09:54;;;;;;;1.63;1.52;;;9.80;99.90;;;;;;5011105;28;20475;-75
2023/03/12 13:12:24;;;;;;;1.63;1.52;;;9.60;99.90;;;;;;5023637;28;20782;-75
2023/03/12 13:14:53;;;;;;;1.20;1.15;;;9.40;99.90;;;;;;5030332;28;20431;-75
2023/03/12 13:17:28;;;;;;;1.77;1.50;;;9.20;99.90;;;;;;5029680;28;20434;-75
2023/03/12 13:20:22;;;;;;;1.70;1.60;;;9.20;99.90;;;;;;5029463;28;20514;-75